Time;durP1;ratioP1;P1;durP2;ratioP2;P2;SDS_P1;SDS_P2;PMS_P1;PMS_P2;Temp;Humidity;BMP_temperature;BMP_pressure;BME280_temperature;BME280_humidity;BME280_pressure;Samples;Min_cycle;Max_cycle;Signal;HPM_P1;HPM_P2
2023/03/01 00:01:21;;;;;;;9.37;8.27;;;2.20;68.80;;;;;;5076879;28;20492;-82
2023/03/01 00:03:46;;;;;;;9.73;8.43;;;2.20;68.90;;;;;;5073868;28;20048;-82
2023/03/01 00:06:12;;;;;;;11.67;8.90;;;2.20;68.80;;;;;;5073831;28;20415;-83
2023/03/01 00:08:38;;;;;;;10.73;8.20;;;2.10;68.80;;;;;;5093252;28;20044;-82
2023/03/01 00:11:15;;;;;;;10.33;8.90;;;2.10;68.80;;;;;;5093851;28;20487;-82
2023/03/01 00:13:41;;;;;;;12.13;8.50;;;2.10;68.80;;;;;;5077221;28;20047;-83
2023/03/01 00:16:10;;;;;;;11.30;8.43;;;2.10;68.90;;;;;;5077008;28;20040;-83
2023/03/01 00:18:36;;;;;;;11.30;8.57;;;2.10;68.40;;;;;;5076980;28;20479;-83
2023/03/01 00:21:02;;;;;;;9.00;7.70;;;2.00;68.50;;;;;;5060377;28;20097;-83
2023/03/01 00:23:28;;;;;;;9.60;7.90;;;2.00;68.60;;;;;;5093291;28;20036;-83
2023/03/01 00:25:54;;;;;;;9.93;7.77;;;2.00;68.70;;;;;;5093378;28;20119;-82
2023/03/01 00:28:20;;;;;;;10.63;8.30;;;2.00;68.80;;;;;;5093746;28;20402;-82
2023/03/01 00:30:46;;;;;;;10.20;7.30;;;2.00;68.80;;;;;;5093225;28;20101;-82
2023/03/01 00:33:11;;;;;;;9.73;8.43;;;2.00;68.80;;;;;;5076625;28;20044;-82
2023/03/01 00:35:37;;;;;;;9.33;7.87;;;2.00;68.90;;;;;;5076657;28;20044;-82
2023/03/01 00:38:03;;;;;;;11.30;8.63;;;2.00;69.00;;;;;;5093320;28;20048;-82
2023/03/01 00:40:31;;;;;;;11.20;9.00;;;1.90;69.00;;;;;;5092984;28;20032;-82
2023/03/01 00:42:57;;;;;;;12.03;9.50;;;2.00;69.10;;;;;;5093198;28;20079;-82
2023/03/01 00:45:24;;;;;;;10.10;8.57;;;1.90;69.00;;;;;;5076430;28;20471;-82
2023/03/01 00:47:51;;;;;;;10.30;8.70;;;1.90;68.90;;;;;;5076309;28;20115;-82
2023/03/01 00:50:17;;;;;;;11.07;8.97;;;1.90;69.00;;;;;;5076315;28;20036;-82
2023/03/01 00:52:44;;;;;;;9.97;8.10;;;1.90;69.10;;;;;;5059813;28;20040;-82
2023/03/01 00:55:10;;;;;;;11.90;8.77;;;1.90;69.10;;;;;;5076121;28;20036;-82
2023/03/01 00:57:36;;;;;;;14.03;10.03;;;1.90;69.20;;;;;;5075703;28;20055;-82
2023/03/01 01:00:04;;;;;;;12.17;9.30;;;1.90;69.10;;;;;;5059343;28;20044;-82
2023/03/01 01:02:31;;;;;;;10.87;9.10;;;1.80;69.00;;;;;;5076054;28;20538;-81
2023/03/01 01:04:57;;;;;;;10.50;8.60;;;1.80;69.00;;;;;;5093203;28;20391;-82
2023/03/01 01:07:23;;;;;;;10.23;8.50;;;1.80;69.10;;;;;;5075808;28;20044;-81
2023/03/01 01:09:48;;;;;;;12.43;8.13;;;1.80;69.10;;;;;;5075696;28;20109;-82
2023/03/01 01:12:14;;;;;;;9.83;8.83;;;1.80;69.10;;;;;;5075858;28;20047;-82
2023/03/01 01:14:39;;;;;;;10.40;8.03;;;1.70;69.20;;;;;;5092684;28;20083;-82
2023/03/01 01:17:05;;;;;;;11.93;8.50;;;1.70;69.30;;;;;;5075560;28;20036;-83
2023/03/01 01:19:31;;;;;;;9.47;8.33;;;1.70;69.30;;;;;;5075780;28;20036;-83
2023/03/01 01:21:57;;;;;;;11.00;8.57;;;1.80;69.40;;;;;;5092503;28;20479;-83
2023/03/01 01:24:22;;;;;;;11.00;8.40;;;1.70;69.30;;;;;;5055737;28;20048;-83
2023/03/01 01:26:48;;;;;;;11.27;8.73;;;1.60;69.40;;;;;;5090541;28;20040;-83
2023/03/01 01:29:14;;;;;;;10.47;9.30;;;1.70;69.50;;;;;;5092490;28;20470;-82
2023/03/01 01:31:42;;;;;;;11.57;8.83;;;1.60;69.50;;;;;;5075615;28;20040;-82
2023/03/01 01:34:13;;;;;;;10.17;8.50;;;1.60;69.60;;;;;;5092491;28;20040;-83
2023/03/01 01:36:39;;;;;;;13.40;9.03;;;1.60;69.70;;;;;;5092260;28;20036;-82
2023/03/01 01:39:05;;;;;;;10.53;8.97;;;1.60;69.70;;;;;;5093037;28;20050;-82
2023/03/01 01:41:30;;;;;;;10.57;8.43;;;1.60;69.70;;;;;;5092302;28;20032;-82
2023/03/01 01:44:23;;;;;;;9.70;7.87;;;1.60;69.70;;;;;;5075423;28;20036;-82
2023/03/01 01:47:03;;;;;;;11.03;8.97;;;1.60;69.70;;;;;;5092114;28;20119;-80
2023/03/01 01:49:41;;;;;;;10.27;8.30;;;1.70;69.80;;;;;;5091892;28;20043;-82
2023/03/01 01:52:11;;;;;;;12.17;10.33;;;1.60;69.70;;;;;;5075402;28;20040;-82
2023/03/01 01:54:46;;;;;;;10.47;8.93;;;1.60;69.70;;;;;;5092160;28;20379;-82
2023/03/01 01:57:23;;;;;;;12.90;9.60;;;1.60;69.90;;;;;;5086665;28;20044;-82
2023/03/01 01:59:54;;;;;;;14.77;10.90;;;1.60;69.90;;;;;;5091424;28;20044;-82
2023/03/01 02:02:20;;;;;;;15.83;9.77;;;1.50;69.50;;;;;;5093232;28;20436;-82
2023/03/01 02:04:49;;;;;;;15.17;11.63;;;1.50;69.10;;;;;;5058174;28;20032;-82
2023/03/01 02:07:22;;;;;;;13.00;9.47;;;1.40;69.00;;;;;;5091861;28;20178;-82
2023/03/01 02:09:52;;;;;;;11.80;9.47;;;1.40;69.20;;;;;;5091727;28;20537;-81
2023/03/01 02:12:21;;;;;;;14.47;10.50;;;1.30;69.40;;;;;;5075155;28;20032;-82
2023/03/01 02:14:47;;;;;;;15.53;11.63;;;1.30;69.60;;;;;;5091829;28;20127;-81
2023/03/01 02:17:16;;;;;;;12.87;10.83;;;1.30;69.60;;;;;;5091775;28;20131;-82
2023/03/01 02:20:13;;;;;;;13.93;10.90;;;1.30;69.70;;;;;;5094055;28;20491;-82
2023/03/01 02:22:39;;;;;;;16.03;11.27;;;1.30;69.80;;;;;;5079463;28;20114;-82
2023/03/01 02:25:18;;;;;;;15.60;11.07;;;1.20;69.80;;;;;;5078781;28;20040;-82
2023/03/01 02:28:05;;;;;;;16.03;10.50;;;1.20;70.10;;;;;;5096137;28;20090;-82
2023/03/01 02:30:32;;;;;;;15.60;10.90;;;1.20;70.20;;;;;;5079040;28;20122;-81
2023/03/01 02:33:02;;;;;;;18.40;12.37;;;1.20;70.30;;;;;;5095995;28;20044;-82
2023/03/01 02:35:37;;;;;;;27.90;16.20;;;1.20;70.50;;;;;;5079207;28;20391;-82
2023/03/01 02:38:06;;;;;;;24.80;14.50;;;1.30;70.70;;;;;;5095904;28;20044;-81
2023/03/01 02:40:35;;;;;;;37.80;20.03;;;1.20;70.70;;;;;;5095693;28;20036;-82
2023/03/01 02:43:03;;;;;;;44.13;24.40;;;1.20;70.90;;;;;;5078640;28;20039;-82
2023/03/01 02:45:29;;;;;;;30.13;17.77;;;1.20;71.40;;;;;;5095722;28;20036;-82
2023/03/01 02:47:56;;;;;;;26.93;17.53;;;1.30;71.20;;;;;;5061996;28;20047;-82
2023/03/01 02:50:28;;;;;;;27.17;14.67;;;1.20;71.30;;;;;;5095671;28;20055;-82
2023/03/01 02:53:01;;;;;;;25.70;14.73;;;1.40;71.60;;;;;;5095536;28;20581;-82
2023/03/01 02:55:27;;;;;;;21.67;14.97;;;1.40;71.50;;;;;;5078765;28;20039;-82
2023/03/01 02:57:55;;;;;;;21.10;14.40;;;1.30;71.40;;;;;;5078110;28;20052;-82
2023/03/01 03:00:26;;;;;;;24.07;14.30;;;1.30;71.40;;;;;;5078225;28;20058;-82
2023/03/01 03:02:53;;;;;;;22.00;15.07;;;1.30;71.40;;;;;;5095303;28;20166;-82
2023/03/01 03:05:25;;;;;;;22.60;15.40;;;1.20;71.20;;;;;;5078634;28;20138;-82
2023/03/01 03:07:52;;;;;;;29.30;14.23;;;1.20;71.10;;;;;;5095556;28;20394;-82
2023/03/01 03:10:24;;;;;;;16.63;12.83;;;1.20;71.10;;;;;;5095335;28;20043;-82
2023/03/01 03:12:56;;;;;;;16.57;12.30;;;1.20;70.80;;;;;;5078454;28;20417;-82
2023/03/01 03:15:23;;;;;;;17.90;13.50;;;1.20;70.60;;;;;;5095043;28;20163;-82
2023/03/01 03:17:50;;;;;;;15.83;12.60;;;1.10;70.40;;;;;;5078205;28;20459;-82
2023/03/01 03:20:21;;;;;;;19.23;13.27;;;1.10;70.40;;;;;;5095171;28;20475;-81
2023/03/01 03:22:49;;;;;;;15.47;12.07;;;1.10;70.60;;;;;;5077919;28;20040;-81
2023/03/01 03:25:15;;;;;;;12.53;10.60;;;1.10;70.90;;;;;;5094884;28;20047;-82
2023/03/01 03:27:46;;;;;;;15.63;12.57;;;1.10;70.90;;;;;;5095003;28;20436;-82
2023/03/01 03:30:15;;;;;;;19.43;11.63;;;1.10;70.80;;;;;;5094143;28;20111;-82
2023/03/01 03:32:51;;;;;;;16.00;11.07;;;1.00;70.80;;;;;;5094912;28;20036;-82
2023/03/01 03:35:19;;;;;;;13.57;10.73;;;1.00;70.80;;;;;;5094847;28;20040;-82
2023/03/01 03:38:03;;;;;;;11.97;10.23;;;1.00;70.90;;;;;;5094581;28;20047;-82
2023/03/01 03:40:35;;;;;;;11.27;10.00;;;0.90;70.90;;;;;;5094519;28;20518;-82
2023/03/01 03:43:07;;;;;;;11.07;9.93;;;0.90;70.80;;;;;;5094496;28;20044;-82
2023/03/01 03:45:33;;;;;;;12.07;10.30;;;0.90;70.80;;;;;;5094577;28;20076;-82
2023/03/01 03:48:00;;;;;;;10.90;9.80;;;0.80;70.60;;;;;;5094413;28;20044;-82
2023/03/01 03:50:26;;;;;;;14.23;10.70;;;0.80;70.60;;;;;;5094313;28;20048;-82
2023/03/01 03:52:52;;;;;;;12.93;11.33;;;0.80;70.60;;;;;;5128434;27;20119;-82
2023/03/01 03:55:19;;;;;;;12.63;10.77;;;0.70;70.70;;;;;;5094278;28;20050;-82
2023/03/01 03:57:53;;;;;;;12.93;11.03;;;0.70;70.80;;;;;;5094110;28;20048;-82
2023/03/01 04:00:23;;;;;;;11.77;10.47;;;0.70;70.90;;;;;;5094150;28;20376;-82
2023/03/01 04:02:50;;;;;;;11.80;10.40;;;0.60;71.00;;;;;;5094060;28;20032;-82
2023/03/01 04:05:17;;;;;;;11.93;10.17;;;0.70;71.10;;;;;;5077816;28;20058;-82
2023/03/01 04:07:44;;;;;;;11.53;10.33;;;0.60;71.00;;;;;;5094375;28;20070;-83
2023/03/01 04:10:13;;;;;;;11.97;10.50;;;0.60;71.00;;;;;;5094076;28;20395;-82
2023/03/01 04:12:38;;;;;;;12.87;11.07;;;0.60;71.00;;;;;;5077036;28;20074;-82
2023/03/01 04:15:12;;;;;;;13.13;11.00;;;0.50;71.10;;;;;;5060568;28;20043;-82
2023/03/01 04:17:47;;;;;;;10.93;9.05;;;0.60;71.40;;;;;;5077093;28;20051;-82
2023/03/01 04:20:17;;;;;;;;;;;0.50;71.30;;;;;;5093992;28;20042;-82
2023/03/01 04:22:46;;;;;;;12.77;10.77;;;0.70;71.30;;;;;;5076915;28;19959;-82
2023/03/01 04:25:13;;;;;;;12.60;11.30;;;0.50;71.30;;;;;;5094429;28;20039;-83
2023/03/01 04:27:40;;;;;;;11.90;10.40;;;0.50;71.50;;;;;;5060627;28;20054;-82
2023/03/01 04:30:07;;;;;;;12.40;11.00;;;0.50;71.40;;;;;;5076686;28;20123;-82
2023/03/01 04:32:33;;;;;;;12.67;10.53;;;0.50;71.50;;;;;;5076686;28;20043;-83
2023/03/01 04:34:59;;;;;;;14.23;12.63;;;0.50;71.60;;;;;;5076980;28;20032;-82
2023/03/01 04:37:25;;;;;;;14.20;12.50;;;0.50;71.60;;;;;;5060102;28;20123;-82
2023/03/01 04:39:51;;;;;;;13.40;12.00;;;0.50;71.40;;;;;;5076758;28;20459;-83
2023/03/01 04:42:17;;;;;;;13.80;11.80;;;0.50;71.40;;;;;;5059057;28;20075;-82
2023/03/01 04:44:44;;;;;;;13.57;11.20;;;0.40;70.50;;;;;;5076533;28;20146;-83
2023/03/01 04:47:10;;;;;;;12.60;11.23;;;0.40;70.30;;;;;;5093304;28;20036;-82
2023/03/01 04:49:36;;;;;;;13.93;11.73;;;0.40;70.60;;;;;;5076242;28;20043;-82
2023/03/01 04:52:04;;;;;;;13.63;11.80;;;0.40;70.90;;;;;;5076618;28;20154;-83
2023/03/01 04:54:34;;;;;;;13.93;11.80;;;0.30;71.10;;;;;;5092908;28;20076;-82
2023/03/01 04:57:00;;;;;;;14.47;12.37;;;0.30;71.30;;;;;;5075865;28;20078;-82
2023/03/01 04:59:26;;;;;;;14.33;12.63;;;0.60;71.70;;;;;;5092864;28;20055;-83
2023/03/01 05:01:56;;;;;;;13.77;11.40;;;0.40;71.70;;;;;;5076368;28;20076;-82
2023/03/01 05:04:23;;;;;;;12.67;11.00;;;0.40;71.70;;;;;;5076535;28;20125;-83
2023/03/01 05:06:49;;;;;;;13.23;11.67;;;0.30;71.70;;;;;;5076061;28;20039;-83
2023/03/01 05:09:15;;;;;;;12.57;11.00;;;0.40;71.80;;;;;;5076039;28;20040;-82
2023/03/01 05:11:41;;;;;;;13.57;11.10;;;0.40;71.80;;;;;;5092782;28;20403;-83
2023/03/01 05:14:08;;;;;;;13.57;11.47;;;0.40;71.80;;;;;;5059305;28;20123;-82
2023/03/01 05:16:35;;;;;;;14.23;11.63;;;0.40;71.70;;;;;;5075947;28;20065;-83
2023/03/01 05:19:11;;;;;;;13.60;11.50;;;0.40;71.70;;;;;;5075602;28;20040;-83
2023/03/01 05:22:01;;;;;;;13.47;11.13;;;0.40;71.60;;;;;;5093046;28;20462;-83
2023/03/01 05:24:27;;;;;;;12.77;11.03;;;0.40;71.60;;;;;;5092584;28;20048;-83
2023/03/01 05:26:53;;;;;;;12.87;11.33;;;0.40;71.50;;;;;;5075494;28;20047;-82
2023/03/01 05:29:27;;;;;;;12.40;10.90;;;0.50;71.50;;;;;;5075886;28;20036;-82
2023/03/01 05:31:58;;;;;;;12.50;11.20;;;0.50;71.40;;;;;;5075985;28;20046;-82
2023/03/01 05:34:25;;;;;;;13.20;11.50;;;0.50;71.30;;;;;;5092814;28;20036;-83
2023/03/01 05:36:52;;;;;;;12.20;10.40;;;0.50;71.20;;;;;;5090188;28;20064;-83
2023/03/01 05:39:21;;;;;;;12.90;11.50;;;0.50;71.20;;;;;;5092436;28;20531;-82
2023/03/01 05:41:47;;;;;;;12.27;10.97;;;0.50;71.10;;;;;;5058960;28;20032;-82
2023/03/01 05:44:13;;;;;;;12.53;10.57;;;0.50;70.90;;;;;;5075354;28;20042;-82
2023/03/01 05:46:39;;;;;;;13.57;11.37;;;0.50;70.80;;;;;;5092421;28;20123;-82
2023/03/01 05:49:05;;;;;;;13.73;11.83;;;0.50;70.80;;;;;;5075359;28;20043;-82
2023/03/01 05:51:30;;;;;;;16.13;12.10;;;0.50;70.80;;;;;;5058609;28;20040;-82
2023/03/01 05:53:56;;;;;;;13.80;11.07;;;0.50;70.70;;;;;;5091877;28;20395;-82
2023/03/01 05:56:22;;;;;;;12.70;11.17;;;0.50;70.70;;;;;;5092193;28;20083;-83
2023/03/01 05:58:49;;;;;;;13.23;10.83;;;0.50;70.60;;;;;;5041622;28;20041;-82
2023/03/01 06:01:15;;;;;;;12.57;10.60;;;0.50;70.60;;;;;;5075300;28;20087;-82
2023/03/01 06:03:41;;;;;;;13.10;10.10;;;0.50;70.50;;;;;;5055024;28;20090;-83
2023/03/01 06:06:06;;;;;;;11.00;9.83;;;0.50;70.10;;;;;;5055576;28;20033;-82
2023/03/01 06:08:32;;;;;;;12.07;10.83;;;0.40;69.70;;;;;;5072118;28;20557;-82
2023/03/01 06:10:58;;;;;;;12.43;10.10;;;0.40;69.60;;;;;;5105654;28;20045;-82
2023/03/01 06:13:24;;;;;;;12.47;10.30;;;0.40;69.80;;;;;;5055463;28;20094;-82
2023/03/01 06:15:50;;;;;;;11.60;9.77;;;0.40;69.90;;;;;;5072476;28;20438;-82
2023/03/01 06:18:15;;;;;;;11.90;10.23;;;0.40;70.00;;;;;;5082427;28;20040;-82
2023/03/01 06:20:41;;;;;;;12.47;10.60;;;0.40;70.00;;;;;;5075804;28;20040;-82
2023/03/01 06:23:07;;;;;;;11.77;10.57;;;0.30;70.10;;;;;;5082278;28;20532;-82
2023/03/01 06:25:32;;;;;;;11.60;10.40;;;0.30;70.10;;;;;;5046590;28;20032;-82
2023/03/01 06:27:58;;;;;;;10.83;9.60;;;0.30;70.10;;;;;;5055246;28;20097;-82
2023/03/01 06:30:25;;;;;;;12.23;9.80;;;0.40;70.00;;;;;;5055505;28;20040;-82
2023/03/01 06:32:51;;;;;;;11.60;10.33;;;0.40;70.00;;;;;;5095167;28;20032;-81
2023/03/01 06:35:18;;;;;;;11.43;9.73;;;0.30;70.10;;;;;;5074967;28;20036;-82
2023/03/01 06:37:45;;;;;;;11.30;9.70;;;0.30;70.10;;;;;;5074945;28;20047;-82
2023/03/01 06:40:13;;;;;;;11.67;10.03;;;0.30;70.20;;;;;;5092076;28;20368;-82
2023/03/01 06:42:41;;;;;;;11.53;10.13;;;0.30;70.10;;;;;;5074825;28;20043;-82
2023/03/01 06:45:08;;;;;;;11.03;9.80;;;0.30;69.90;;;;;;5091589;28;20032;-82
2023/03/01 06:47:34;;;;;;;11.33;9.77;;;0.20;69.80;;;;;;5055089;28;20182;-82
2023/03/01 06:50:00;;;;;;;11.13;9.80;;;0.30;69.90;;;;;;5088326;28;20123;-82
2023/03/01 06:52:26;;;;;;;12.33;10.37;;;0.20;69.90;;;;;;5055609;28;20043;-82
2023/03/01 06:54:52;;;;;;;11.73;9.90;;;0.30;70.00;;;;;;5108798;28;20546;-83
2023/03/01 06:57:18;;;;;;;11.70;9.90;;;0.20;70.00;;;;;;5074515;28;20063;-82
2023/03/01 06:59:43;;;;;;;12.53;9.70;;;0.30;70.10;;;;;;5074850;28;20044;-82
2023/03/01 07:02:13;;;;;;;11.57;10.13;;;0.20;70.20;;;;;;5091555;28;20073;-82
2023/03/01 07:04:39;;;;;;;12.90;10.90;;;0.20;70.20;;;;;;5075075;28;20044;-82
2023/03/01 07:07:05;;;;;;;12.93;10.13;;;0.20;69.90;;;;;;5112466;28;20062;-82
2023/03/01 07:09:31;;;;;;;12.33;10.20;;;0.20;69.80;;;;;;5129546;27;20044;-82
2023/03/01 07:11:57;;;;;;;12.23;10.17;;;0.20;69.70;;;;;;5078288;28;20525;-82
2023/03/01 07:14:26;;;;;;;13.43;11.03;;;0.20;69.80;;;;;;5095174;28;20040;-82
2023/03/01 07:16:53;;;;;;;12.90;10.53;;;0.20;70.10;;;;;;5095114;28;20085;-83
2023/03/01 07:19:19;;;;;;;13.60;11.43;;;0.20;70.20;;;;;;5061477;28;20043;-82
2023/03/01 07:21:44;;;;;;;14.53;11.97;;;0.20;70.30;;;;;;5095034;28;20048;-82
2023/03/01 07:24:10;;;;;;;12.50;10.83;;;0.20;70.40;;;;;;5094975;28;20047;-82
2023/03/01 07:26:36;;;;;;;14.33;12.07;;;0.20;70.50;;;;;;5094749;28;20128;-82
2023/03/01 07:29:04;;;;;;;17.13;13.43;;;0.20;70.50;;;;;;5095420;28;20040;-82
2023/03/01 07:31:30;;;;;;;14.50;12.33;;;0.20;70.70;;;;;;5077962;28;20040;-82
2023/03/01 07:33:56;;;;;;;14.60;11.67;;;0.20;70.90;;;;;;5078065;28;20392;-82
2023/03/01 07:36:22;;;;;;;15.43;12.43;;;0.20;71.20;;;;;;5077662;28;20046;-83
2023/03/01 07:38:48;;;;;;;15.20;12.37;;;0.30;71.40;;;;;;5077649;28;20036;-83
2023/03/01 07:41:14;;;;;;;16.30;12.97;;;0.30;71.30;;;;;;5077802;28;20475;-82
2023/03/01 07:43:40;;;;;;;13.67;12.17;;;0.30;71.40;;;;;;5094360;28;20071;-82
2023/03/01 07:46:06;;;;;;;16.43;12.67;;;0.30;71.70;;;;;;5077961;28;20040;-82
2023/03/01 07:48:33;;;;;;;16.73;12.67;;;0.30;71.90;;;;;;5094712;28;20131;-81
2023/03/01 07:51:00;;;;;;;15.97;11.73;;;0.60;72.40;;;;;;5077949;28;20071;-81
2023/03/01 07:53:26;;;;;;;16.47;13.10;;;0.50;72.50;;;;;;5094586;28;20399;-81
2023/03/01 07:56:05;;;;;;;16.93;13.03;;;0.50;72.80;;;;;;5077256;28;20051;-81
2023/03/01 07:58:31;;;;;;;16.90;13.60;;;0.60;73.10;;;;;;5093780;28;20055;-81
2023/03/01 08:01:00;;;;;;;16.17;13.17;;;0.60;73.10;;;;;;5060917;28;20040;-81
2023/03/01 08:03:26;;;;;;;17.07;13.17;;;0.80;73.30;;;;;;5094081;28;20093;-82
2023/03/01 08:05:52;;;;;;;15.83;13.17;;;1.10;73.50;;;;;;5060446;28;20040;-81
2023/03/01 08:08:17;;;;;;;16.43;13.73;;;0.90;73.70;;;;;;5077175;28;20071;-81
2023/03/01 08:10:43;;;;;;;20.20;15.27;;;1.00;74.00;;;;;;5128265;27;20040;-82
2023/03/01 08:13:09;;;;;;;18.70;14.10;;;1.10;74.10;;;;;;5077363;28;20139;-82
2023/03/01 08:15:34;;;;;;;20.43;16.13;;;1.20;74.30;;;;;;5106953;28;20047;-82
2023/03/01 08:18:00;;;;;;;21.60;15.57;;;1.30;74.50;;;;;;5073351;28;20044;-81
2023/03/01 08:20:26;;;;;;;19.77;15.90;;;1.50;75.00;;;;;;5107875;28;20036;-82
2023/03/01 08:22:51;;;;;;;20.20;16.07;;;1.80;75.40;;;;;;5060131;28;20040;-82
2023/03/01 08:25:17;;;;;;;20.43;14.80;;;2.00;75.60;;;;;;5093881;28;20094;-82
2023/03/01 08:27:43;;;;;;;20.10;14.87;;;2.40;75.30;;;;;;5076975;28;20044;-82
2023/03/01 08:30:09;;;;;;;20.13;16.43;;;2.80;75.10;;;;;;5093572;28;20444;-81
2023/03/01 08:32:37;;;;;;;18.97;15.13;;;3.20;74.70;;;;;;5093312;28;20074;-81
2023/03/01 08:35:03;;;;;;;20.38;16.65;;;3.60;74.00;;;;;;5083305;28;20471;-81
2023/03/01 08:37:30;;;;;;;21.10;15.80;;;3.90;73.10;;;;;;5088021;28;20071;-81
2023/03/01 08:39:56;;;;;;;21.92;16.60;;;4.10;72.40;;;;;;5093197;28;20040;-81
2023/03/01 08:42:22;;;;;;;23.05;17.33;;;4.30;71.70;;;;;;5076394;28;20089;-82
2023/03/01 08:44:48;;;;;;;19.27;16.05;;;4.40;71.50;;;;;;5074714;28;20032;-82
2023/03/01 08:47:14;;;;;;;20.70;17.10;;;4.60;71.90;;;;;;5073092;28;20044;-81
2023/03/01 08:49:39;;;;;;;20.27;15.85;;;5.00;71.80;;;;;;5089728;28;20037;-81
2023/03/01 08:52:05;;;;;;;19.38;16.77;;;5.20;71.30;;;;;;5056159;28;20105;-82
2023/03/01 08:54:31;;;;;;;20.63;16.77;;;5.40;70.60;;;;;;5056239;28;20036;-82
2023/03/01 08:56:58;;;;;;;23.00;18.40;;;5.60;70.30;;;;;;5072504;28;20041;-81
2023/03/01 08:59:25;;;;;;;21.23;17.80;;;5.90;70.00;;;;;;5083328;28;20101;-81
2023/03/01 09:01:51;;;;;;;20.63;17.55;;;6.10;69.20;;;;;;5093332;28;20486;-81
2023/03/01 09:04:16;;;;;;;23.58;18.80;;;6.30;68.80;;;;;;5093229;28;20122;-81
2023/03/01 09:06:42;;;;;;;22.30;17.60;;;6.60;68.40;;;;;;5059565;28;20038;-81
2023/03/01 09:09:14;;;;;;;21.35;16.92;;;6.80;67.70;;;;;;5092767;28;20156;-81
2023/03/01 09:11:40;;;;;;;27.92;21.27;;;7.00;66.80;;;;;;5092793;28;20684;-80
2023/03/01 09:14:06;;;;;;;26.75;21.25;;;7.10;66.60;;;;;;5109794;28;20077;-81
2023/03/01 09:16:35;;;;;;;24.50;18.77;;;7.30;66.30;;;;;;5092716;28;20048;-80
2023/03/01 09:19:02;;;;;;;29.20;22.60;;;7.30;66.00;;;;;;5092619;28;20115;-81
2023/03/01 09:21:28;;;;;;;31.23;22.80;;;7.40;66.10;;;;;;5075778;28;20040;-81
2023/03/01 09:23:55;;;;;;;25.17;20.48;;;7.50;65.70;;;;;;5075833;28;20123;-81
2023/03/01 09:26:22;;;;;;;28.70;21.27;;;7.50;65.50;;;;;;5092491;28;20403;-79
2023/03/01 09:28:50;;;;;;;26.30;20.90;;;7.60;65.50;;;;;;5075432;28;20040;-81
2023/03/01 09:31:17;;;;;;;28.20;22.15;;;7.70;65.20;;;;;;5092553;28;20071;-81
2023/03/01 09:33:46;;;;;;;27.48;21.55;;;7.70;65.10;;;;;;5092598;28;20066;-81
2023/03/01 09:36:15;;;;;;;27.95;20.75;;;7.80;64.40;;;;;;5075898;28;20419;-81
2023/03/01 09:38:41;;;;;;;27.55;20.85;;;7.80;64.90;;;;;;5092805;28;20039;-81
2023/03/01 09:41:31;;;;;;;27.30;18.63;;;7.90;64.40;;;;;;5075702;28;20032;-81
2023/03/01 09:44:04;;;;;;;26.98;20.58;;;7.90;63.80;;;;;;5091484;28;20054;-81
2023/03/01 09:46:37;;;;;;;25.85;20.35;;;7.90;63.60;;;;;;5092436;28;20123;-81
2023/03/01 09:49:17;;;;;;;26.27;19.67;;;7.80;63.50;;;;;;5092708;28;20048;-81
2023/03/01 09:51:47;;;;;;;20.27;16.40;;;7.80;63.60;;;;;;5092570;28;20051;-81
2023/03/01 09:54:13;;;;;;;21.77;16.73;;;7.80;62.70;;;;;;5075536;28;20040;-81
2023/03/01 09:56:57;;;;;;;24.80;19.52;;;7.70;61.50;;;;;;5126304;27;20047;-81
2023/03/01 09:59:47;;;;;;;19.15;14.95;;;7.70;61.50;;;;;;5091727;28;20043;-81
2023/03/01 10:02:41;;;;;;;20.80;14.75;;;7.60;59.80;;;;;;5075251;28;20492;-81
2023/03/01 10:05:33;;;;;;;21.30;16.55;;;7.50;59.00;;;;;;5080457;28;20093;-80
2023/03/01 10:08:10;;;;;;;22.77;17.05;;;7.40;59.80;;;;;;5085536;28;20085;-81
2023/03/01 10:10:39;;;;;;;20.02;14.85;;;7.40;60.00;;;;;;5116421;28;20036;-81
2023/03/01 10:13:27;;;;;;;17.27;13.30;;;7.40;60.00;;;;;;5068069;28;20048;-81
2023/03/01 10:16:05;;;;;;;19.05;13.95;;;7.40;59.20;;;;;;5111754;28;20071;-81
2023/03/01 10:18:36;;;;;;;17.13;12.38;;;7.40;58.90;;;;;;5084478;28;20034;-79
2023/03/01 10:21:13;;;;;;;16.98;12.75;;;7.40;58.50;;;;;;5085033;28;20415;-80
2023/03/01 10:23:39;;;;;;;15.13;12.07;;;7.40;57.90;;;;;;5068150;28;20086;-81
2023/03/01 10:26:10;;;;;;;14.50;10.90;;;7.40;57.90;;;;;;5068055;28;20080;-80
2023/03/01 10:28:58;;;;;;;15.93;10.85;;;7.40;57.30;;;;;;5085105;28;20046;-81
2023/03/01 10:31:40;;;;;;;13.32;9.82;;;7.40;56.60;;;;;;5085326;28;20036;-81
2023/03/01 10:34:34;;;;;;;17.75;13.63;;;7.50;56.40;;;;;;5115066;28;20122;-80
2023/03/01 10:37:13;;;;;;;16.92;12.43;;;7.50;56.90;;;;;;5063360;28;20047;-81
2023/03/01 10:39:54;;;;;;;15.50;11.63;;;7.50;57.60;;;;;;5069059;28;20498;-80
2023/03/01 10:42:27;;;;;;;15.35;11.45;;;7.60;57.30;;;;;;5119129;27;20049;-81
2023/03/01 10:44:53;;;;;;;17.45;11.60;;;7.60;57.30;;;;;;5074399;28;20036;-81
2023/03/01 10:47:20;;;;;;;15.38;10.43;;;7.60;57.10;;;;;;5074777;28;20403;-81
2023/03/01 10:49:58;;;;;;;14.93;10.60;;;7.60;56.60;;;;;;5077401;28;20137;-81
2023/03/01 10:52:54;;;;;;;14.98;10.30;;;7.70;55.50;;;;;;5095649;28;20064;-80
2023/03/01 10:55:39;;;;;;;15.55;10.60;;;7.60;54.10;;;;;;5077381;28;20039;-82
2023/03/01 10:58:22;;;;;;;16.23;11.43;;;7.60;54.10;;;;;;5057351;28;20067;-80
2023/03/01 11:00:54;;;;;;;15.82;11.80;;;7.60;54.50;;;;;;5103428;28;20487;-79
2023/03/01 11:03:27;;;;;;;16.75;12.82;;;7.50;54.20;;;;;;5077351;28;20028;-79
2023/03/01 11:06:00;;;;;;;16.75;12.05;;;7.50;53.70;;;;;;5111284;28;20039;-80
2023/03/01 11:08:35;;;;;;;14.68;11.73;;;7.50;53.80;;;;;;5098262;28;20482;-80
2023/03/01 11:11:13;;;;;;;16.00;11.73;;;7.50;53.60;;;;;;5083956;28;20111;-79
2023/03/01 11:14:15;;;;;;;16.60;11.77;;;7.40;54.30;;;;;;5108938;27;20051;-79
2023/03/01 11:16:43;;;;;;;14.90;10.75;;;7.50;54.20;;;;;;5090504;28;20043;-79
2023/03/01 11:19:09;;;;;;;15.70;11.27;;;7.50;54.30;;;;;;5106152;28;20044;-79
2023/03/01 11:21:38;;;;;;;17.63;11.43;;;7.50;54.40;;;;;;5117159;27;20047;-79
2023/03/01 11:24:10;;;;;;;14.80;11.15;;;7.50;54.30;;;;;;5088984;28;20036;-79
2023/03/01 11:26:42;;;;;;;12.50;9.63;;;7.60;53.80;;;;;;5076944;28;20043;-79
2023/03/01 11:29:42;;;;;;;12.90;9.30;;;7.60;54.00;;;;;;5094446;28;20040;-79
2023/03/01 11:32:12;;;;;;;15.10;9.63;;;7.70;53.50;;;;;;5086360;28;20092;-79
2023/03/01 11:34:59;;;;;;;17.10;11.00;;;7.60;53.30;;;;;;5111560;28;20043;-79
2023/03/01 11:37:35;;;;;;;13.90;10.07;;;7.70;52.70;;;;;;5114213;28;20515;-79
2023/03/01 11:40:15;;;;;;;15.77;11.13;;;7.70;52.30;;;;;;5106343;28;20066;-80
2023/03/01 11:43:24;;;;;;;15.50;10.82;;;7.70;52.80;;;;;;5093525;28;20055;-80
2023/03/01 11:45:50;;;;;;;15.85;11.43;;;7.70;53.60;;;;;;5052483;28;20047;-79
2023/03/01 11:48:51;;;;;;;18.52;11.65;;;7.70;53.80;;;;;;5077066;28;20050;-79
2023/03/01 11:51:31;;;;;;;19.27;12.77;;;7.70;53.90;;;;;;5093089;28;20123;-79
2023/03/01 11:54:13;;;;;;;18.77;12.80;;;7.70;54.10;;;;;;5126725;27;20047;-79
2023/03/01 11:56:43;;;;;;;15.13;10.85;;;7.70;54.50;;;;;;5093476;28;20546;-79
2023/03/01 11:59:47;;;;;;;14.82;11.00;;;7.80;54.50;;;;;;5096021;28;20399;-79
2023/03/01 12:02:56;;;;;;;14.60;11.05;;;7.80;54.00;;;;;;5114260;28;20134;-79
2023/03/01 12:05:40;;;;;;;15.93;10.68;;;7.80;54.20;;;;;;5113670;28;20038;-79
2023/03/01 12:08:16;;;;;;;15.20;10.80;;;7.70;53.80;;;;;;5097277;28;20035;-80
2023/03/01 12:11:02;;;;;;;14.18;11.07;;;7.70;54.00;;;;;;5114764;28;20399;-80
2023/03/01 12:13:56;;;;;;;16.02;10.40;;;7.70;53.20;;;;;;5114795;28;20391;-80
2023/03/01 12:16:37;;;;;;;14.20;10.98;;;7.80;54.00;;;;;;5113529;28;20131;-79
2023/03/01 12:19:29;;;;;;;17.42;11.82;;;7.80;53.80;;;;;;5127275;27;20128;-79
2023/03/01 12:22:11;;;;;;;16.42;12.13;;;7.80;54.00;;;;;;5093871;28;20114;-79
2023/03/01 12:24:48;;;;;;;20.20;13.40;;;7.80;53.60;;;;;;5093740;28;20039;-80
2023/03/01 12:27:47;;;;;;;16.40;12.20;;;7.70;53.50;;;;;;5093508;28;20036;-80
2023/03/01 12:30:42;;;;;;;16.38;11.48;;;7.70;53.30;;;;;;5090938;28;20536;-79
2023/03/01 12:33:20;;;;;;;;;;;7.70;53.10;;;;;;5077138;28;20433;-80
2023/03/01 12:36:03;;;;;;;20.95;11.98;;;7.60;53.20;;;;;;5093404;28;19916;-80
2023/03/01 12:38:56;;;;;;;18.05;12.15;;;7.60;54.20;;;;;;5112676;27;20438;-80
2023/03/01 12:41:40;;;;;;;15.05;11.82;;;7.70;54.10;;;;;;5073110;28;20079;-80
2023/03/01 12:44:34;;;;;;;16.52;11.70;;;7.60;54.20;;;;;;5073376;28;20521;-80
2023/03/01 12:47:42;;;;;;;15.43;10.77;;;7.60;54.70;;;;;;5092483;28;20110;-81
2023/03/01 12:50:19;;;;;;;13.45;10.32;;;7.70;53.60;;;;;;5099053;28;20032;-80
2023/03/01 12:52:52;;;;;;;13.43;10.18;;;7.70;52.80;;;;;;5091214;28;20032;-80
2023/03/01 12:55:23;;;;;;;12.18;9.80;;;7.70;53.00;;;;;;5092898;28;20372;-80
2023/03/01 12:58:17;;;;;;;12.23;8.75;;;7.60;52.70;;;;;;5092730;28;20059;-79
2023/03/01 13:01:08;;;;;;;14.90;10.02;;;7.70;52.60;;;;;;5052487;28;20073;-79